sensor_id;sensor_type;location;lat;lon;timestamp;pressure;altitude;pressure_sealevel;temperature;humidity
32873;BME280;19224;52.462;16.898;2023-04-08T00:01:41;100673.02;;;7.36;100.00
32873;BME280;19224;52.462;16.898;2023-04-08T00:04:11;100676.25;;;7.31;100.00
32873;BME280;19224;52.462;16.898;2023-04-08T00:06:42;100676.84;;;7.26;100.00
32873;BME280;19224;52.462;16.898;2023-04-08T00:09:12;100677.79;;;7.24;100.00
32873;BME280;19224;52.462;16.898;2023-04-08T00:11:42;100676.00;;;7.24;100.00
32873;BME280;19224;52.462;16.898;2023-04-08T00:14:13;100680.02;;;7.24;100.00
32873;BME280;19224;52.462;16.898;2023-04-08T00:16:43;100686.41;;;7.19;100.00
32873;BME280;19224;52.462;16.898;2023-04-08T00:19:14;100697.57;;;7.18;100.00
32873;BME280;19224;52.462;16.898;2023-04-08T00:21:50;100715.90;;;7.17;100.00
32873;BME280;19224;52.462;16.898;2023-04-08T00:24:18;100701.98;;;7.21;100.00
32873;BME280;19224;52.462;16.898;2023-04-08T00:26:48;100696.65;;;7.19;100.00
32873;BME280;19224;52.462;16.898;2023-04-08T00:29:18;100719.50;;;7.16;100.00
32873;BME280;19224;52.462;16.898;2023-04-08T00:31:48;100720.31;;;7.20;100.00
32873;BME280;19224;52.462;16.898;2023-04-08T00:34:22;100716.38;;;7.17;100.00
32873;BME280;19224;52.462;16.898;2023-04-08T00:36:53;100711.13;;;7.12;100.00
32873;BME280;19224;52.462;16.898;2023-04-08T00:39:24;100718.80;;;7.08;100.00
32873;BME280;19224;52.462;16.898;2023-04-08T00:41:54;100716.70;;;7.03;100.00
32873;BME280;19224;52.462;16.898;2023-04-08T00:44:25;100712.48;;;6.94;100.00
32873;BME280;19224;52.462;16.898;2023-04-08T00:46:55;100711.64;;;6.92;100.00
32873;BME280;19224;52.462;16.898;2023-04-08T00:49:26;100717.33;;;6.96;100.00
32873;BME280;19224;52.462;16.898;2023-04-08T00:51:57;100719.17;;;6.94;100.00
32873;BME280;19224;52.462;16.898;2023-04-08T00:54:29;100720.11;;;6.91;100.00
32873;BME280;19224;52.462;16.898;2023-04-08T00:56:59;100717.41;;;6.93;100.00
32873;BME280;19224;52.462;16.898;2023-04-08T00:59:30;100721.87;;;6.92;100.00
32873;BME280;19224;52.462;16.898;2023-04-08T01:07:43;100732.50;;;6.78;100.00
32873;BME280;19224;52.462;16.898;2023-04-08T01:10:30;100730.70;;;6.77;100.00
32873;BME280;19224;52.462;16.898;2023-04-08T01:13:07;100736.64;;;6.72;100.00
32873;BME280;19224;52.462;16.898;2023-04-08T01:15:38;100738.09;;;6.66;100.00
32873;BME280;19224;52.462;16.898;2023-04-08T01:18:13;100740.42;;;6.62;100.00
32873;BME280;19224;52.462;16.898;2023-04-08T01:20:49;100747.19;;;6.59;100.00
32873;BME280;19224;52.462;16.898;2023-04-08T01:24:00;100749.06;;;6.54;100.00
32873;BME280;19224;52.462;16.898;2023-04-08T01:26:31;100749.61;;;6.50;100.00
32873;BME280;19224;52.462;16.898;2023-04-08T01:29:02;100751.50;;;6.44;100.00
32873;BME280;19224;52.462;16.898;2023-04-08T01:31:37;100754.25;;;6.41;100.00
32873;BME280;19224;52.462;16.898;2023-04-08T01:34:09;100757.00;;;6.38;100.00
32873;BME280;19224;52.462;16.898;2023-04-08T01:36:43;100754.84;;;6.34;100.00
32873;BME280;19224;52.462;16.898;2023-04-08T01:39:16;100757.92;;;6.37;100.00
32873;BME280;19224;52.462;16.898;2023-04-08T01:41:47;100760.21;;;6.33;100.00
32873;BME280;19224;52.462;16.898;2023-04-08T01:44:19;100751.81;;;6.30;100.00
32873;BME280;19224;52.462;16.898;2023-04-08T01:46:50;100760.35;;;6.27;100.00
32873;BME280;19224;52.462;16.898;2023-04-08T01:49:22;100755.08;;;6.24;100.00
32873;BME280;19224;52.462;16.898;2023-04-08T01:51:54;100768.91;;;6.22;100.00
32873;BME280;19224;52.462;16.898;2023-04-08T01:54:26;100780.59;;;6.18;100.00
32873;BME280;19224;52.462;16.898;2023-04-08T01:56:57;100778.40;;;6.16;100.00
32873;BME280;19224;52.462;16.898;2023-04-08T01:59:31;100775.80;;;6.13;100.00
32873;BME280;19224;52.462;16.898;2023-04-08T02:02:05;100777.16;;;6.10;100.00
32873;BME280;19224;52.462;16.898;2023-04-08T02:04:37;100779.91;;;6.07;100.00
32873;BME280;19224;52.462;16.898;2023-04-08T02:07:07;100784.83;;;6.06;100.00
32873;BME280;19224;52.462;16.898;2023-04-08T02:09:37;100783.59;;;6.00;100.00
32873;BME280;19224;52.462;16.898;2023-04-08T02:12:08;100792.10;;;5.98;100.00
32873;BME280;19224;52.462;16.898;2023-04-08T02:14:38;100794.06;;;5.90;100.00
32873;BME280;19224;52.462;16.898;2023-04-08T02:17:23;100794.58;;;5.85;100.00
32873;BME280;19224;52.462;16.898;2023-04-08T02:20:05;100798.16;;;5.84;100.00
32873;BME280;19224;52.462;16.898;2023-04-08T02:22:49;100797.73;;;5.83;100.00
32873;BME280;19224;52.462;16.898;2023-04-08T02:25:22;100803.13;;;5.78;100.00
32873;BME280;19224;52.462;16.898;2023-04-08T02:27:54;100803.14;;;5.80;100.00
32873;BME280;19224;52.462;16.898;2023-04-08T02:30:27;100811.53;;;5.84;100.00
32873;BME280;19224;52.462;16.898;2023-04-08T02:33:02;100809.41;;;5.79;100.00
32873;BME280;19224;52.462;16.898;2023-04-08T02:35:33;100822.30;;;5.78;100.00
32873;BME280;19224;52.462;16.898;2023-04-08T02:38:04;100819.23;;;5.74;100.00
32873;BME280;19224;52.462;16.898;2023-04-08T02:40:34;100831.34;;;5.69;100.00
32873;BME280;19224;52.462;16.898;2023-04-08T02:43:04;100827.52;;;5.59;100.00
32873;BME280;19224;52.462;16.898;2023-04-08T02:45:42;100830.63;;;5.58;100.00
32873;BME280;19224;52.462;16.898;2023-04-08T02:48:13;100838.69;;;5.57;100.00
32873;BME280;19224;52.462;16.898;2023-04-08T02:50:43;100840.89;;;5.57;100.00
32873;BME280;19224;52.462;16.898;2023-04-08T02:53:13;100845.38;;;5.57;100.00
32873;BME280;19224;52.462;16.898;2023-04-08T02:55:43;100853.41;;;5.54;100.00
32873;BME280;19224;52.462;16.898;2023-04-08T02:58:13;100848.11;;;5.52;100.00
32873;BME280;19224;52.462;16.898;2023-04-08T03:00:43;100855.65;;;5.53;100.00
32873;BME280;19224;52.462;16.898;2023-04-08T03:03:14;100854.80;;;5.51;100.00
32873;BME280;19224;52.462;16.898;2023-04-08T03:05:44;100859.72;;;5.50;100.00
32873;BME280;19224;52.462;16.898;2023-04-08T03:08:14;100863.73;;;5.48;100.00
32873;BME280;19224;52.462;16.898;2023-04-08T03:10:44;100866.93;;;5.45;100.00
32873;BME280;19224;52.462;16.898;2023-04-08T03:13:14;100869.60;;;5.45;100.00
32873;BME280;19224;52.462;16.898;2023-04-08T03:15:45;100876.70;;;5.46;100.00
32873;BME280;19224;52.462;16.898;2023-04-08T03:18:15;100878.00;;;5.47;100.00
32873;BME280;19224;52.462;16.898;2023-04-08T03:20:45;100878.05;;;5.44;100.00
32873;BME280;19224;52.462;16.898;2023-04-08T03:23:15;100884.66;;;5.49;100.00
32873;BME280;19224;52.462;16.898;2023-04-08T03:25:46;100882.91;;;5.46;100.00
32873;BME280;19224;52.462;16.898;2023-04-08T03:28:16;100885.22;;;5.41;100.00
32873;BME280;19224;52.462;16.898;2023-04-08T03:30:46;100888.30;;;5.45;100.00
32873;BME280;19224;52.462;16.898;2023-04-08T03:33:16;100888.30;;;5.45;100.00
32873;BME280;19224;52.462;16.898;2023-04-08T03:35:46;100888.66;;;5.50;100.00
32873;BME280;19224;52.462;16.898;2023-04-08T03:38:16;100886.50;;;5.44;100.00
32873;BME280;19224;52.462;16.898;2023-04-08T03:40:46;100888.24;;;5.48;100.00
32873;BME280;19224;52.462;16.898;2023-04-08T03:43:16;100887.77;;;5.50;100.00
32873;BME280;19224;52.462;16.898;2023-04-08T03:45:48;100889.02;;;5.56;100.00
32873;BME280;19224;52.462;16.898;2023-04-08T03:48:18;100887.58;;;5.60;100.00
32873;BME280;19224;52.462;16.898;2023-04-08T03:50:48;100889.34;;;5.63;100.00
32873;BME280;19224;52.462;16.898;2023-04-08T03:53:18;100888.00;;;5.63;100.00
32873;BME280;19224;52.462;16.898;2023-04-08T03:55:49;100888.05;;;5.60;100.00
32873;BME280;19224;52.462;16.898;2023-04-08T03:58:19;100887.63;;;5.59;100.00
32873;BME280;19224;52.462;16.898;2023-04-08T04:00:49;100898.39;;;5.53;100.00
32873;BME280;19224;52.462;16.898;2023-04-08T04:03:19;100894.02;;;5.47;100.00
32873;BME280;19224;52.462;16.898;2023-04-08T04:05:49;100896.20;;;5.51;100.00
32873;BME280;19224;52.462;16.898;2023-04-08T04:08:20;100888.67;;;5.49;100.00
32873;BME280;19224;52.462;16.898;2023-04-08T04:10:50;100893.18;;;5.44;100.00
32873;BME280;19224;52.462;16.898;2023-04-08T04:13:20;100895.53;;;5.37;100.00
32873;BME280;19224;52.462;16.898;2023-04-08T04:15:50;100907.49;;;5.40;100.00
32873;BME280;19224;52.462;16.898;2023-04-08T04:18:20;100900.77;;;5.43;100.00
32873;BME280;19224;52.462;16.898;2023-04-08T04:20:50;100907.42;;;5.46;100.00
32873;BME280;19224;52.462;16.898;2023-04-08T04:23:21;100908.77;;;5.44;100.00
32873;BME280;19224;52.462;16.898;2023-04-08T04:25:52;100914.17;;;5.40;100.00
32873;BME280;19224;52.462;16.898;2023-04-08T04:28:23;100917.32;;;5.38;100.00
32873;BME280;19224;52.462;16.898;2023-04-08T04:30:53;100920.05;;;5.33;100.00
32873;BME280;19224;52.462;16.898;2023-04-08T04:33:23;100928.55;;;5.30;100.00
32873;BME280;19224;52.462;16.898;2023-04-08T04:35:53;100934.59;;;5.13;100.00
32873;BME280;19224;52.462;16.898;2023-04-08T04:38:24;100937.25;;;5.13;100.00
32873;BME280;19224;52.462;16.898;2023-04-08T04:40:55;100934.11;;;5.15;100.00
32873;BME280;19224;52.462;16.898;2023-04-08T04:43:27;100935.86;;;5.17;100.00
32873;BME280;19224;52.462;16.898;2023-04-08T04:45:57;100934.11;;;5.15;100.00
32873;BME280;19224;52.462;16.898;2023-04-08T04:48:27;100937.64;;;5.15;100.00
32873;BME280;19224;52.462;16.898;2023-04-08T04:51:00;100934.05;;;5.19;100.00
32873;BME280;19224;52.462;16.898;2023-04-08T04:53:35;100938.59;;;5.13;100.00
32873;BME280;19224;52.462;16.898;2023-04-08T04:56:05;100939.51;;;5.09;100.00
32873;BME280;19224;52.462;16.898;2023-04-08T04:58:35;100943.50;;;5.12;100.00
32873;BME280;19224;52.462;16.898;2023-04-08T05:01:11;100948.05;;;5.04;100.00
32873;BME280;19224;52.462;16.898;2023-04-08T05:03:42;100945.33;;;5.07;100.00
32873;BME280;19224;52.462;16.898;2023-04-08T05:06:13;100951.14;;;5.05;100.00
32873;BME280;19224;52.462;16.898;2023-04-08T05:08:45;100958.33;;;5.00;100.00
32873;BME280;19224;52.462;16.898;2023-04-08T05:11:16;100963.20;;;5.02;100.00
32873;BME280;19224;52.462;16.898;2023-04-08T05:13:49;100957.38;;;5.04;100.00
32873;BME280;19224;52.462;16.898;2023-04-08T05:16:19;100963.05;;;5.14;100.00
32873;BME280;19224;52.462;16.898;2023-04-08T05:18:49;100966.62;;;5.13;100.00
32873;BME280;19224;52.462;16.898;2023-04-08T05:21:22;100970.10;;;5.18;100.00
32873;BME280;19224;52.462;16.898;2023-04-08T05:23:53;100967.69;;;5.34;100.00
32873;BME280;19224;52.462;16.898;2023-04-08T05:26:24;100974.15;;;5.49;100.00
32873;BME280;19224;52.462;16.898;2023-04-08T05:28:54;100970.39;;;5.63;100.00
32873;BME280;19224;52.462;16.898;2023-04-08T05:31:28;100976.41;;;5.77;100.00
32873;BME280;19224;52.462;16.898;2023-04-08T05:33:59;100979.41;;;5.89;100.00
32873;BME280;19224;52.462;16.898;2023-04-08T05:36:29;100982.81;;;5.98;100.00
32873;BME280;19224;52.462;16.898;2023-04-08T05:39:00;100978.67;;;6.06;100.00
32873;BME280;19224;52.462;16.898;2023-04-08T05:41:30;100985.34;;;6.07;100.00
32873;BME280;19224;52.462;16.898;2023-04-08T05:44:00;100986.99;;;6.14;100.00
32873;BME280;19224;52.462;16.898;2023-04-08T05:46:30;100985.98;;;6.23;100.00
32873;BME280;19224;52.462;16.898;2023-04-08T05:49:00;100986.70;;;6.32;100.00
32873;BME280;19224;52.462;16.898;2023-04-08T05:51:30;100990.57;;;6.41;100.00
32873;BME280;19224;52.462;16.898;2023-04-08T05:54:00;100986.91;;;6.47;100.00
32873;BME280;19224;52.462;16.898;2023-04-08T05:56:30;100993.13;;;6.47;100.00
32873;BME280;19224;52.462;16.898;2023-04-08T05:59:00;101001.14;;;6.49;100.00
32873;BME280;19224;52.462;16.898;2023-04-08T06:01:31;101004.73;;;6.46;100.00
32873;BME280;19224;52.462;16.898;2023-04-08T06:04:01;101006.02;;;6.49;100.00
32873;BME280;19224;52.462;16.898;2023-04-08T06:06:31;101010.91;;;6.51;100.00
32873;BME280;19224;52.462;16.898;2023-04-08T06:09:01;101013.81;;;6.63;100.00
32873;BME280;19224;52.462;16.898;2023-04-08T06:11:31;101021.34;;;6.66;100.00
32873;BME280;19224;52.462;16.898;2023-04-08T06:14:01;101026.19;;;6.70;100.00
32873;BME280;19224;52.462;16.898;2023-04-08T06:16:31;101023.87;;;6.74;100.00
32873;BME280;19224;52.462;16.898;2023-04-08T06:19:01;101026.39;;;6.83;100.00
32873;BME280;19224;52.462;16.898;2023-04-08T06:21:31;101030.41;;;6.83;100.00
32873;BME280;19224;52.462;16.898;2023-04-08T06:24:02;101031.11;;;6.92;100.00
32873;BME280;19224;52.462;16.898;2023-04-08T06:26:32;101035.95;;;6.97;100.00
32873;BME280;19224;52.462;16.898;2023-04-08T06:29:02;101045.04;;;7.10;100.00
32873;BME280;19224;52.462;16.898;2023-04-08T06:31:33;101040.48;;;7.17;100.00
32873;BME280;19224;52.462;16.898;2023-04-08T06:34:03;101043.85;;;7.26;100.00
32873;BME280;19224;52.462;16.898;2023-04-08T06:36:33;101049.03;;;7.35;100.00
32873;BME280;19224;52.462;16.898;2023-04-08T06:39:03;101048.81;;;7.46;100.00
32873;BME280;19224;52.462;16.898;2023-04-08T06:41:33;101052.88;;;7.44;100.00
32873;BME280;19224;52.462;16.898;2023-04-08T06:44:04;101054.92;;;7.52;100.00
32873;BME280;19224;52.462;16.898;2023-04-08T06:46:34;101061.09;;;7.57;100.00
32873;BME280;19224;52.462;16.898;2023-04-08T06:49:04;101056.16;;;7.58;100.00
32873;BME280;19224;52.462;16.898;2023-04-08T06:51:35;101063.09;;;7.68;100.00
32873;BME280;19224;52.462;16.898;2023-04-08T06:54:05;101067.04;;;7.71;100.00
32873;BME280;19224;52.462;16.898;2023-04-08T06:56:35;101073.17;;;7.76;100.00
32873;BME280;19224;52.462;16.898;2023-04-08T06:59:05;101065.19;;;7.94;100.00
32873;BME280;19224;52.462;16.898;2023-04-08T07:01:35;101068.09;;;8.04;100.00
32873;BME280;19224;52.462;16.898;2023-04-08T07:04:05;101075.42;;;8.16;100.00
32873;BME280;19224;52.462;16.898;2023-04-08T07:06:36;101078.80;;;8.26;100.00
32873;BME280;19224;52.462;16.898;2023-04-08T07:09:06;101087.25;;;8.28;100.00
32873;BME280;19224;52.462;16.898;2023-04-08T07:11:36;101078.09;;;8.18;100.00
32873;BME280;19224;52.462;16.898;2023-04-08T07:14:07;101082.13;;;8.16;100.00
32873;BME280;19224;52.462;16.898;2023-04-08T07:16:37;101090.60;;;8.17;100.00
32873;BME280;19224;52.462;16.898;2023-04-08T07:19:07;101090.12;;;8.21;100.00
32873;BME280;19224;52.462;16.898;2023-04-08T07:21:37;101092.78;;;8.22;100.00
32873;BME280;19224;52.462;16.898;2023-04-08T07:24:07;101089.81;;;8.34;100.00
32873;BME280;19224;52.462;16.898;2023-04-08T07:26:38;101094.78;;;8.32;100.00
32873;BME280;19224;52.462;16.898;2023-04-08T07:29:08;101097.79;;;8.17;100.00
32873;BME280;19224;52.462;16.898;2023-04-08T07:31:38;101095.13;;;8.15;100.00
32873;BME280;19224;52.462;16.898;2023-04-08T07:34:09;101099.95;;;8.20;100.00
32873;BME280;19224;52.462;16.898;2023-04-08T07:36:39;101103.77;;;8.29;100.00
32873;BME280;19224;52.462;16.898;2023-04-08T07:39:09;101101.94;;;8.31;100.00
32873;BME280;19224;52.462;16.898;2023-04-08T07:41:40;101103.55;;;8.40;100.00
32873;BME280;19224;52.462;16.898;2023-04-08T07:44:10;101115.52;;;8.44;100.00
32873;BME280;19224;52.462;16.898;2023-04-08T07:46:42;101108.44;;;8.40;100.00
32873;BME280;19224;52.462;16.898;2023-04-08T07:49:14;101114.86;;;8.52;100.00
32873;BME280;19224;52.462;16.898;2023-04-08T07:51:44;101113.62;;;8.48;100.00
32873;BME280;19224;52.462;16.898;2023-04-08T07:54:14;101118.27;;;8.60;100.00
32873;BME280;19224;52.462;16.898;2023-04-08T07:56:45;101118.77;;;8.58;100.00
32873;BME280;19224;52.462;16.898;2023-04-08T07:59:15;101120.73;;;8.50;100.00
32873;BME280;19224;52.462;16.898;2023-04-08T08:01:46;101128.47;;;8.64;100.00
32873;BME280;19224;52.462;16.898;2023-04-08T08:04:16;101126.10;;;8.69;100.00
32873;BME280;19224;52.462;16.898;2023-04-08T08:06:47;101129.02;;;8.78;100.00
32873;BME280;19224;52.462;16.898;2023-04-08T08:09:17;101128.88;;;8.84;100.00
32873;BME280;19224;52.462;16.898;2023-04-08T08:11:47;101142.45;;;8.78;100.00
32873;BME280;19224;52.462;16.898;2023-04-08T08:14:17;101141.28;;;8.89;100.00
32873;BME280;19224;52.462;16.898;2023-04-08T08:16:48;101141.75;;;8.87;100.00
32873;BME280;19224;52.462;16.898;2023-04-08T08:19:21;101147.08;;;8.90;100.00
32873;BME280;19224;52.462;16.898;2023-04-08T08:21:54;101148.30;;;8.95;100.00
32873;BME280;19224;52.462;16.898;2023-04-08T08:24:27;101148.02;;;9.05;100.00
32873;BME280;19224;52.462;16.898;2023-04-08T08:26:59;101151.83;;;9.14;100.00
32873;BME280;19224;52.462;16.898;2023-04-08T08:29:31;101149.09;;;9.16;100.00
32873;BME280;19224;52.462;16.898;2023-04-08T08:32:01;101152.33;;;9.30;100.00
32873;BME280;19224;52.462;16.898;2023-04-08T08:34:44;101156.05;;;9.24;100.00
32873;BME280;19224;52.462;16.898;2023-04-08T08:37:15;101156.98;;;9.39;100.00
32873;BME280;19224;52.462;16.898;2023-04-08T08:39:45;101159.48;;;9.29;100.00
32873;BME280;19224;52.462;16.898;2023-04-08T08:42:24;101156.30;;;9.31;100.00
32873;BME280;19224;52.462;16.898;2023-04-08T08:44:54;101157.44;;;9.38;100.00
32873;BME280;19224;52.462;16.898;2023-04-08T08:47:25;101158.91;;;9.51;100.00
32873;BME280;19224;52.462;16.898;2023-04-08T08:49:55;101160.99;;;9.56;100.00
32873;BME280;19224;52.462;16.898;2023-04-08T08:52:25;101165.30;;;9.63;100.00
32873;BME280;19224;52.462;16.898;2023-04-08T08:54:59;101162.13;;;9.64;100.00
32873;BME280;19224;52.462;16.898;2023-04-08T08:57:30;101164.78;;;9.65;100.00
32873;BME280;19224;52.462;16.898;2023-04-08T09:00:00;101165.50;;;9.72;100.00
32873;BME280;19224;52.462;16.898;2023-04-08T09:02:31;101163.72;;;9.87;100.00
32873;BME280;19224;52.462;16.898;2023-04-08T09:05:04;101165.32;;;10.10;100.00
32873;BME280;19224;52.462;16.898;2023-04-08T09:07:38;101165.89;;;10.21;100.00
32873;BME280;19224;52.462;16.898;2023-04-08T09:10:09;101171.29;;;10.35;100.00
32873;BME280;19224;52.462;16.898;2023-04-08T09:12:54;101177.14;;;10.20;100.00
32873;BME280;19224;52.462;16.898;2023-04-08T09:15:25;101175.77;;;10.06;100.00
32873;BME280;19224;52.462;16.898;2023-04-08T09:17:56;101177.22;;;10.32;100.00
32873;BME280;19224;52.462;16.898;2023-04-08T09:20:27;101175.47;;;10.60;100.00
32873;BME280;19224;52.462;16.898;2023-04-08T09:23:02;101179.13;;;10.72;100.00
32873;BME280;19224;52.462;16.898;2023-04-08T09:25:33;101178.09;;;10.76;100.00
32873;BME280;19224;52.462;16.898;2023-04-08T09:28:04;101182.50;;;10.93;100.00
32873;BME280;19224;52.462;16.898;2023-04-08T09:30:37;101181.19;;;10.91;100.00
32873;BME280;19224;52.462;16.898;2023-04-08T09:33:07;101178.70;;;11.13;100.00
32873;BME280;19224;52.462;16.898;2023-04-08T09:35:37;101177.80;;;11.12;100.00
32873;BME280;19224;52.462;16.898;2023-04-08T09:38:07;101178.44;;;11.20;100.00
32873;BME280;19224;52.462;16.898;2023-04-08T09:40:38;101176.19;;;11.20;100.00
32873;BME280;19224;52.462;16.898;2023-04-08T09:43:11;101180.50;;;11.25;100.00
32873;BME280;19224;52.462;16.898;2023-04-08T09:45:43;101181.70;;;11.30;100.00
32873;BME280;19224;52.462;16.898;2023-04-08T09:48:21;101179.52;;;11.41;100.00
32873;BME280;19224;52.462;16.898;2023-04-08T09:50:52;101188.12;;;11.52;100.00
32873;BME280;19224;52.462;16.898;2023-04-08T09:53:38;101188.75;;;11.61;100.00
32873;BME280;19224;52.462;16.898;2023-04-08T09:56:11;101194.85;;;11.66;100.00
32873;BME280;19224;52.462;16.898;2023-04-08T09:58:50;101184.09;;;11.65;100.00
32873;BME280;19224;52.462;16.898;2023-04-08T10:01:29;101186.28;;;11.80;99.34
32873;BME280;19224;52.462;16.898;2023-04-08T10:03:55;101187.14;;;11.80;98.44
32873;BME280;19224;52.462;16.898;2023-04-08T10:06:28;101184.09;;;11.39;97.77
32873;BME280;19224;52.462;16.898;2023-04-08T10:09:01;101183.34;;;11.08;100.00
32873;BME280;19224;52.462;16.898;2023-04-08T10:11:32;101178.48;;;11.19;99.72
32873;BME280;19224;52.462;16.898;2023-04-08T10:14:04;101178.52;;;11.58;100.00
32873;BME280;19224;52.462;16.898;2023-04-08T10:16:35;101183.50;;;11.81;99.08
32873;BME280;19224;52.462;16.898;2023-04-08T10:19:38;101183.14;;;11.92;98.30
32873;BME280;19224;52.462;16.898;2023-04-08T10:22:47;101183.43;;;11.95;97.46
32873;BME280;19224;52.462;16.898;2023-04-08T10:30:55;101192.38;;;11.85;98.67
32873;BME280;19224;52.462;16.898;2023-04-08T10:33:32;101189.73;;;11.96;96.07
32873;BME280;19224;52.462;16.898;2023-04-08T10:36:11;101180.81;;;12.05;93.35
32873;BME280;19224;52.462;16.898;2023-04-08T10:38:42;101186.54;;;11.96;92.64
32873;BME280;19224;52.462;16.898;2023-04-08T10:41:22;101182.12;;;12.07;90.61
32873;BME280;19224;52.462;16.898;2023-04-08T10:43:50;101184.00;;;12.16;89.38
32873;BME280;19224;52.462;16.898;2023-04-08T10:46:20;101183.89;;;12.42;90.70
32873;BME280;19224;52.462;16.898;2023-04-08T10:49:02;101174.48;;;12.52;90.50
32873;BME280;19224;52.462;16.898;2023-04-08T10:51:32;101179.08;;;12.50;89.86
32873;BME280;19224;52.462;16.898;2023-04-08T10:54:08;101178.94;;;12.76;90.20
32873;BME280;19224;52.462;16.898;2023-04-08T10:56:51;101181.23;;;12.87;87.31
32873;BME280;19224;52.462;16.898;2023-04-08T10:59:31;101181.36;;;12.72;86.42
32873;BME280;19224;52.462;16.898;2023-04-08T11:02:01;101185.64;;;12.89;86.73
32873;BME280;19224;52.462;16.898;2023-04-08T11:04:31;101188.17;;;12.82;86.14
32873;BME280;19224;52.462;16.898;2023-04-08T11:07:04;101184.47;;;12.96;86.71
32873;BME280;19224;52.462;16.898;2023-04-08T11:09:36;101191.30;;;13.16;86.39
32873;BME280;19224;52.462;16.898;2023-04-08T11:12:07;101185.12;;;13.24;83.37
32873;BME280;19224;52.462;16.898;2023-04-08T11:14:39;101187.31;;;13.36;82.72
32873;BME280;19224;52.462;16.898;2023-04-08T11:17:10;101183.44;;;13.32;81.79
32873;BME280;19224;52.462;16.898;2023-04-08T11:19:40;101185.58;;;13.24;81.86
32873;BME280;19224;52.462;16.898;2023-04-08T11:22:12;101182.80;;;13.04;81.92
32873;BME280;19224;52.462;16.898;2023-04-08T11:24:42;101181.08;;;12.68;81.48
32873;BME280;19224;52.462;16.898;2023-04-08T11:27:13;101183.20;;;12.37;83.53
32873;BME280;19224;52.462;16.898;2023-04-08T11:29:44;101188.88;;;12.41;84.74
32873;BME280;19224;52.462;16.898;2023-04-08T11:32:14;101185.36;;;12.39;86.00
32873;BME280;19224;52.462;16.898;2023-04-08T11:34:45;101187.25;;;12.37;85.17
32873;BME280;19224;52.462;16.898;2023-04-08T11:37:16;101183.82;;;12.32;84.01
32873;BME280;19224;52.462;16.898;2023-04-08T11:39:46;101193.33;;;12.19;84.37
32873;BME280;19224;52.462;16.898;2023-04-08T11:42:31;101190.91;;;12.00;83.58
32873;BME280;19224;52.462;16.898;2023-04-08T11:45:01;101193.48;;;12.03;84.22
32873;BME280;19224;52.462;16.898;2023-04-08T11:47:34;101192.31;;;12.10;84.30
32873;BME280;19224;52.462;16.898;2023-04-08T11:50:06;101196.42;;;12.33;83.92
32873;BME280;19224;52.462;16.898;2023-04-08T11:55:30;101194.34;;;12.28;83.20
32873;BME280;19224;52.462;16.898;2023-04-08T11:58:05;101195.40;;;12.36;83.77
32873;BME280;19224;52.462;16.898;2023-04-08T12:00:36;101193.17;;;12.47;84.19
32873;BME280;19224;52.462;16.898;2023-04-08T12:03:07;101194.19;;;12.67;82.44
32873;BME280;19224;52.462;16.898;2023-04-08T12:05:39;101187.62;;;12.84;82.47
32873;BME280;19224;52.462;16.898;2023-04-08T12:08:09;101193.39;;;12.98;80.98
32873;BME280;19224;52.462;16.898;2023-04-08T12:10:40;101189.74;;;12.99;79.64
32873;BME280;19224;52.462;16.898;2023-04-08T12:13:10;101196.04;;;13.11;79.91
32873;BME280;19224;52.462;16.898;2023-04-08T12:15:40;101197.83;;;13.22;81.26
32873;BME280;19224;52.462;16.898;2023-04-08T12:18:12;101193.53;;;13.38;80.02
32873;BME280;19224;52.462;16.898;2023-04-08T12:20:42;101186.09;;;13.43;78.18
32873;BME280;19224;52.462;16.898;2023-04-08T12:23:13;101185.55;;;13.35;78.48
32873;BME280;19224;52.462;16.898;2023-04-08T12:26:10;101182.03;;;13.33;78.24
32873;BME280;19224;52.462;16.898;2023-04-08T12:28:41;101179.13;;;13.48;78.21
32873;BME280;19224;52.462;16.898;2023-04-08T12:31:12;101180.56;;;13.66;76.60
32873;BME280;19224;52.462;16.898;2023-04-08T12:33:42;101178.69;;;13.98;75.88
32873;BME280;19224;52.462;16.898;2023-04-08T12:36:13;101181.96;;;14.26;75.84
32873;BME280;19224;52.462;16.898;2023-04-08T12:38:44;101178.17;;;14.48;73.48
32873;BME280;19224;52.462;16.898;2023-04-08T12:41:16;101177.29;;;14.58;72.97
32873;BME280;19224;52.462;16.898;2023-04-08T12:43:46;101176.05;;;14.55;72.61
32873;BME280;19224;52.462;16.898;2023-04-08T12:46:17;101175.27;;;14.43;72.61
32873;BME280;19224;52.462;16.898;2023-04-08T12:48:47;101174.20;;;14.47;72.58
32873;BME280;19224;52.462;16.898;2023-04-08T12:51:18;101180.67;;;14.53;72.34
32873;BME280;19224;52.462;16.898;2023-04-08T12:53:50;101170.20;;;14.64;71.89
32873;BME280;19224;52.462;16.898;2023-04-08T12:56:20;101174.70;;;14.55;71.12
32873;BME280;19224;52.462;16.898;2023-04-08T12:58:50;101175.53;;;14.57;71.41
32873;BME280;19224;52.462;16.898;2023-04-08T13:01:21;101171.98;;;14.55;72.57
32873;BME280;19224;52.462;16.898;2023-04-08T13:03:51;101174.78;;;14.25;74.00
32873;BME280;19224;52.462;16.898;2023-04-08T13:06:22;101173.70;;;13.89;74.97
32873;BME280;19224;52.462;16.898;2023-04-08T13:08:53;101179.65;;;13.67;74.56
32873;BME280;19224;52.462;16.898;2023-04-08T13:11:23;101172.98;;;13.54;75.55
32873;BME280;19224;52.462;16.898;2023-04-08T13:13:53;101170.27;;;13.54;76.06
32873;BME280;19224;52.462;16.898;2023-04-08T13:16:24;101172.34;;;13.69;75.94
32873;BME280;19224;52.462;16.898;2023-04-08T13:18:55;101172.59;;;13.73;76.98